createdAt,value
2024-03-02T00:01:54.648Z,6.00
2024-03-02T00:04:24.232Z,6.00
2024-03-02T00:06:55.786Z,6.00
2024-03-02T00:09:24.205Z,6.00
2024-03-02T00:11:53.041Z,6.00
2024-03-02T00:14:21.632Z,6.00
2024-03-02T00:16:49.949Z,6.00
2024-03-02T00:19:18.407Z,6.00
2024-03-02T00:21:48.846Z,6.00
2024-03-02T00:24:23.910Z,6.00
2024-03-02T00:26:52.471Z,6.00
2024-03-02T00:29:22.244Z,6.00
2024-03-02T00:31:50.625Z,6.00
2024-03-02T00:34:20.103Z,6.00
2024-03-02T00:36:50.136Z,6.00
2024-03-02T00:39:19.556Z,6.00
2024-03-02T00:41:48.749Z,6.10
2024-03-02T00:44:21.134Z,6.10
2024-03-02T00:46:49.393Z,6.10
2024-03-02T00:49:23.652Z,6.10
2024-03-02T00:51:55.567Z,6.10
2024-03-02T00:54:27.159Z,6.10
2024-03-02T00:56:57.484Z,6.10
2024-03-02T00:59:26.289Z,6.10
2024-03-02T01:01:55.095Z,6.10
2024-03-02T01:04:23.415Z,6.20
2024-03-02T01:06:53.094Z,6.10
2024-03-02T01:09:21.619Z,6.20
2024-03-02T01:11:50.206Z,6.20
2024-03-02T01:14:18.532Z,6.20
2024-03-02T01:16:46.843Z,6.20
2024-03-02T01:19:15.958Z,6.20
2024-03-02T01:21:44.440Z,6.20
2024-03-02T01:24:14.443Z,6.30
2024-03-02T01:26:42.755Z,6.30
2024-03-02T01:29:10.984Z,6.40
2024-03-02T01:31:40.820Z,6.40
2024-03-02T01:34:09.099Z,6.50
2024-03-02T01:36:37.411Z,6.60
2024-03-02T01:39:09.937Z,6.50
2024-03-02T01:41:39.611Z,6.50
2024-03-02T01:44:07.974Z,6.50
2024-03-02T01:46:36.962Z,6.40
2024-03-02T01:49:05.603Z,6.30
2024-03-02T01:51:33.973Z,6.30
2024-03-02T01:54:02.303Z,6.20
2024-03-02T01:56:30.596Z,6.20
2024-03-02T01:59:00.225Z,6.20
2024-03-02T02:01:28.785Z,6.10
2024-03-02T02:03:57.191Z,6.10
2024-03-02T02:06:25.513Z,6.10
2024-03-02T02:08:53.842Z,6.10
2024-03-02T02:11:22.402Z,6.10
2024-03-02T02:13:50.749Z,6.10
2024-03-02T02:16:20.477Z,6.10
2024-03-02T02:18:48.778Z,6.10
2024-03-02T02:21:17.299Z,6.10
2024-03-02T02:23:49.444Z,6.00
2024-03-02T02:26:17.770Z,6.00
2024-03-02T02:28:48.139Z,6.00
2024-03-02T02:31:16.546Z,5.90
2024-03-02T02:33:45.078Z,6.00
2024-03-02T02:36:13.290Z,6.00
2024-03-02T02:38:49.150Z,6.00
2024-03-02T02:41:17.493Z,6.00
2024-03-02T02:43:45.739Z,6.00
2024-03-02T02:46:13.951Z,6.00
2024-03-02T02:48:42.226Z,6.00
2024-03-02T02:51:10.469Z,6.00
2024-03-02T02:53:41.380Z,6.00
2024-03-02T02:56:11.530Z,6.20
2024-03-02T02:58:39.753Z,6.10
2024-03-02T03:01:08.745Z,6.10
2024-03-02T03:03:37.082Z,6.10
2024-03-02T03:06:05.856Z,6.10
2024-03-02T03:08:34.083Z,6.10
2024-03-02T03:11:02.412Z,6.20
2024-03-02T03:13:32.162Z,6.20
2024-03-02T03:16:00.593Z,6.20
2024-03-02T03:18:28.886Z,6.10
2024-03-02T03:20:57.131Z,6.10
2024-03-02T03:23:26.919Z,6.10
2024-03-02T03:25:55.152Z,6.10
2024-03-02T03:28:23.379Z,6.20
2024-03-02T03:30:53.026Z,6.30
2024-03-02T03:33:21.338Z,6.40
2024-03-02T03:35:49.530Z,6.50
2024-03-02T03:38:17.740Z,6.50
2024-03-02T03:40:46.125Z,6.50
2024-03-02T03:43:14.422Z,6.60
2024-03-02T03:45:43.195Z,6.60
2024-03-02T03:48:12.809Z,6.60
2024-03-02T03:50:41.048Z,6.70
2024-03-02T03:53:09.482Z,6.70
2024-03-02T03:55:37.711Z,6.70
2024-03-02T03:58:06.287Z,6.70
2024-03-02T04:00:34.572Z,6.70
2024-03-02T04:03:02.814Z,6.70
2024-03-02T04:05:32.413Z,6.70
2024-03-02T04:08:01.308Z,6.70
2024-03-02T04:10:29.555Z,6.70
2024-03-02T04:12:57.994Z,6.70
2024-03-02T04:15:26.246Z,6.70
2024-03-02T04:17:54.445Z,6.70
2024-03-02T04:20:22.674Z,6.70
2024-03-02T04:22:52.266Z,6.80
2024-03-02T04:25:21.009Z,6.70
2024-03-02T04:27:49.284Z,6.70
2024-03-02T04:30:17.863Z,6.70
2024-03-02T04:32:47.678Z,6.70
2024-03-02T04:35:16.443Z,6.70
2024-03-02T04:37:44.835Z,6.70
2024-03-02T04:40:15.148Z,6.70
2024-03-02T04:42:44.156Z,6.70
2024-03-02T04:45:12.476Z,6.70
2024-03-02T04:47:40.710Z,6.70
2024-03-02T04:50:10.203Z,6.60
2024-03-02T04:52:38.561Z,6.60
2024-03-02T04:55:30.610Z,6.60
2024-03-02T04:58:00.457Z,6.60
2024-03-02T05:00:28.793Z,6.50
2024-03-02T05:02:57.010Z,6.50
2024-03-02T05:05:25.241Z,6.50
2024-03-02T05:07:53.466Z,6.40
2024-03-02T05:10:21.824Z,6.40
2024-03-02T05:12:58.483Z,6.30
2024-03-02T05:15:30.652Z,6.30
2024-03-02T05:18:00.587Z,6.20
2024-03-02T05:20:28.914Z,6.20
2024-03-02T05:22:57.136Z,6.20
2024-03-02T05:25:25.398Z,6.10
2024-03-02T05:27:53.627Z,6.10
2024-03-02T05:30:22.072Z,6.10
2024-03-02T05:32:51.770Z,6.10
2024-03-02T05:35:20.084Z,6.10
2024-03-02T05:37:48.286Z,6.10
2024-03-02T05:40:16.794Z,6.10
2024-03-02T05:42:45.075Z,6.10
2024-03-02T05:45:13.575Z,6.10
2024-03-02T05:47:41.845Z,6.10
2024-03-02T05:50:11.912Z,6.00
2024-03-02T05:52:40.169Z,6.10
2024-03-02T05:55:09.109Z,5.90
2024-03-02T05:57:50.414Z,5.90
2024-03-02T06:00:19.719Z,5.90
2024-03-02T06:02:48.101Z,5.90
2024-03-02T06:05:19.791Z,5.90
2024-03-02T06:07:48.033Z,5.90
2024-03-02T06:10:16.515Z,5.90
2024-03-02T06:12:44.860Z,5.90
2024-03-02T06:15:13.101Z,5.90
2024-03-02T06:17:41.362Z,6.00
2024-03-02T06:20:11.708Z,6.00
2024-03-02T06:22:41.331Z,6.00
2024-03-02T06:25:10.396Z,6.00
2024-03-02T06:27:38.724Z,6.00
2024-03-02T06:30:09.089Z,6.00
2024-03-02T06:32:37.307Z,6.00
2024-03-02T06:35:08.591Z,6.00
2024-03-02T06:37:36.803Z,6.00
2024-03-02T06:40:08.710Z,6.00
2024-03-02T06:42:37.203Z,5.90
2024-03-02T06:45:06.793Z,5.90
2024-03-02T06:47:35.062Z,5.80
2024-03-02T06:50:03.374Z,5.80
2024-03-02T06:52:31.605Z,5.80
2024-03-02T06:54:59.933Z,5.80
2024-03-02T06:57:29.603Z,5.80
2024-03-02T06:59:59.806Z,5.90
2024-03-02T07:02:28.877Z,6.00
2024-03-02T07:04:57.184Z,6.10
2024-03-02T07:07:25.432Z,6.20
2024-03-02T07:09:53.713Z,6.20
2024-03-02T07:12:22.042Z,6.30
2024-03-02T07:15:12.552Z,6.30
2024-03-02T07:17:40.845Z,6.30
2024-03-02T07:20:10.068Z,6.30
2024-03-02T07:22:40.471Z,6.40
2024-03-02T07:26:54.544Z,6.50
2024-03-02T07:27:59.044Z,6.60
2024-03-02T07:30:30.281Z,6.80
2024-03-02T07:32:59.576Z,7.00
2024-03-02T07:35:28.958Z,7.30
2024-03-02T07:37:57.801Z,7.80
2024-03-02T07:40:26.252Z,8.20
2024-03-02T07:42:54.718Z,8.60
2024-03-02T07:45:23.088Z,9.00
2024-03-02T07:47:52.795Z,9.30
2024-03-02T07:50:21.177Z,9.50
2024-03-02T07:52:49.404Z,9.70
2024-03-02T07:55:17.796Z,9.90
2024-03-02T07:57:46.079Z,10.00
2024-03-02T08:00:15.683Z,10.10
2024-03-02T08:02:44.331Z,10.00
2024-03-02T08:05:14.120Z,9.80
2024-03-02T08:07:42.987Z,9.60
2024-03-02T08:10:12.479Z,9.50
2024-03-02T08:12:40.860Z,9.30
2024-03-02T08:15:09.863Z,9.20
2024-03-02T08:17:38.701Z,9.10
2024-03-02T08:20:09.392Z,9.00
2024-03-02T08:22:39.427Z,9.00
2024-03-02T08:25:09.035Z,8.90
2024-03-02T08:27:37.700Z,8.90
2024-03-02T08:30:09.312Z,8.90
2024-03-02T08:32:37.584Z,9.00
2024-03-02T08:35:07.836Z,9.10
2024-03-02T08:37:36.137Z,9.10
2024-03-02T08:40:08.267Z,9.30
2024-03-02T08:42:36.890Z,9.50
2024-03-02T08:45:05.966Z,9.80
2024-03-02T08:47:34.849Z,10.00
2024-03-02T08:50:03.216Z,10.40
2024-03-02T08:52:31.503Z,10.80
2024-03-02T08:54:59.816Z,11.30
2024-03-02T08:57:29.576Z,11.50
2024-03-02T08:59:57.829Z,12.40
2024-03-02T09:02:26.208Z,14.10
2024-03-02T09:04:54.855Z,15.50
2024-03-02T09:07:23.128Z,16.70
2024-03-02T09:09:51.568Z,17.40
2024-03-02T09:12:20.083Z,17.30
2024-03-02T09:14:49.962Z,16.60
2024-03-02T09:17:18.236Z,16.00
2024-03-02T09:19:46.449Z,15.60
2024-03-02T09:22:14.722Z,15.10
2024-03-02T09:24:42.997Z,14.70
2024-03-02T09:27:11.223Z,14.30
2024-03-02T09:29:39.452Z,13.60
2024-03-02T09:32:14.529Z,13.20
2024-03-02T09:34:42.793Z,12.90
2024-03-02T09:37:11.032Z,12.60
2024-03-02T09:39:39.269Z,12.40
2024-03-02T09:42:08.292Z,12.50
2024-03-02T09:44:36.702Z,12.60
2024-03-02T09:47:05.290Z,12.60
2024-03-02T09:49:35.484Z,12.50
2024-03-02T09:52:07.956Z,12.30
2024-03-02T09:54:36.292Z,12.30
2024-03-02T09:57:05.262Z,12.30
2024-03-02T09:59:33.488Z,12.40
2024-03-02T10:02:04.028Z,12.50
2024-03-02T10:04:36.906Z,12.50
2024-03-02T10:07:16.482Z,12.50
2024-03-02T10:09:46.716Z,12.50
2024-03-02T10:12:17.825Z,12.40
2024-03-02T10:14:49.623Z,12.40
2024-03-02T10:17:20.284Z,12.50
2024-03-02T10:19:49.891Z,12.70
2024-03-02T10:22:18.099Z,13.00
2024-03-02T10:24:47.470Z,13.20
2024-03-02T10:27:20.509Z,13.30
2024-03-02T10:29:49.415Z,13.30
2024-03-02T10:32:18.730Z,13.20
2024-03-02T10:34:49.424Z,13.50
2024-03-02T10:37:19.428Z,14.00
2024-03-02T10:39:49.318Z,14.20
2024-03-02T10:42:18.498Z,14.10
2024-03-02T10:44:48.105Z,14.10
2024-03-02T10:47:18.517Z,14.10
2024-03-02T10:49:51.980Z,14.20
2024-03-02T10:52:20.292Z,14.30
2024-03-02T10:54:48.614Z,14.40
2024-03-02T10:57:24.066Z,14.40
2024-03-02T10:59:58.490Z,14.40
2024-03-02T11:02:28.750Z,14.30
2024-03-02T11:05:02.326Z,14.30
2024-03-02T11:07:31.830Z,14.40
2024-03-02T11:10:09.593Z,14.80
2024-03-02T11:12:50.000Z,14.90
2024-03-02T11:15:21.365Z,15.00
2024-03-02T11:17:51.038Z,15.10
2024-03-02T11:20:21.756Z,15.40
2024-03-02T11:22:50.131Z,15.70
2024-03-02T11:25:28.600Z,15.90
2024-03-02T11:28:05.119Z,16.20
2024-03-02T11:30:52.181Z,16.80
2024-03-02T11:33:28.582Z,16.30
2024-03-02T11:35:59.571Z,15.70
2024-03-02T11:38:36.041Z,15.10
2024-03-02T11:41:09.823Z,14.70
2024-03-02T11:43:41.456Z,14.50
2024-03-02T11:46:09.963Z,14.60
2024-03-02T11:48:41.316Z,14.50
2024-03-02T11:51:12.512Z,14.30
2024-03-02T11:53:42.388Z,14.90
2024-03-02T11:56:13.644Z,15.80
2024-03-02T11:58:43.472Z,16.70
2024-03-02T12:01:14.443Z,17.20
2024-03-02T12:03:43.119Z,17.60
2024-03-02T12:06:14.181Z,17.40
2024-03-02T12:08:44.279Z,16.80
2024-03-02T12:11:17.318Z,16.50
2024-03-02T12:13:57.043Z,17.00
2024-03-02T12:16:28.149Z,17.10
2024-03-02T12:18:57.495Z,16.90
2024-03-02T12:21:27.426Z,16.60
2024-03-02T12:23:56.048Z,16.40
2024-03-02T12:26:25.559Z,16.00
2024-03-02T12:28:54.019Z,15.70
2024-03-02T12:31:22.705Z,16.00
2024-03-02T12:33:51.382Z,16.60
2024-03-02T12:36:21.263Z,16.90
2024-03-02T12:38:51.662Z,17.00
2024-03-02T12:41:19.927Z,17.50
2024-03-02T12:43:48.196Z,18.10
2024-03-02T12:46:17.709Z,18.40
2024-03-02T12:48:46.069Z,18.30
2024-03-02T12:51:15.473Z,18.00
2024-03-02T12:53:43.790Z,17.80
2024-03-02T12:56:13.481Z,17.30
2024-03-02T12:58:43.326Z,16.90
2024-03-02T13:01:12.379Z,16.70
2024-03-02T13:03:40.948Z,16.70
2024-03-02T13:06:10.696Z,17.00
2024-03-02T13:08:38.936Z,17.30
2024-03-02T13:11:08.122Z,17.70
2024-03-02T13:13:38.580Z,18.00
2024-03-02T13:16:11.139Z,18.10
2024-03-02T13:18:40.916Z,18.20
2024-03-02T13:21:09.536Z,17.90
2024-03-02T13:23:37.838Z,17.60
2024-03-02T13:26:08.540Z,17.50
2024-03-02T13:28:38.950Z,17.40
2024-03-02T13:31:07.895Z,17.30
2024-03-02T13:33:36.238Z,17.00
2024-03-02T13:36:05.392Z,16.60
2024-03-02T13:38:33.623Z,16.20
2024-03-02T13:41:02.324Z,16.20
2024-03-02T13:43:32.999Z,16.30
2024-03-02T13:46:03.915Z,16.50
2024-03-02T13:48:33.063Z,16.50
2024-03-02T13:51:01.318Z,16.40
2024-03-02T13:53:29.590Z,16.60
2024-03-02T13:55:57.955Z,17.00
2024-03-02T13:58:26.238Z,17.30
2024-03-02T14:00:54.762Z,17.50
2024-03-02T14:03:24.658Z,17.10
2024-03-02T14:05:53.849Z,16.70
2024-03-02T14:08:22.375Z,16.40
2024-03-02T14:10:50.660Z,15.80
2024-03-02T14:13:18.938Z,15.50
2024-03-02T14:15:47.769Z,15.20
2024-03-02T14:18:16.135Z,14.90
2024-03-02T14:20:46.780Z,14.50
2024-03-02T14:23:15.190Z,14.30
2024-03-02T14:25:43.484Z,14.00
2024-03-02T14:28:36.261Z,13.90
2024-03-02T14:31:01.890Z,13.90
2024-03-02T14:33:31.670Z,13.90
2024-03-02T14:36:01.427Z,13.90
2024-03-02T14:38:30.091Z,14.00
2024-03-02T14:40:58.609Z,14.00
2024-03-02T14:43:26.845Z,14.10
2024-03-02T14:45:55.153Z,14.20
2024-03-02T14:48:23.811Z,14.10
2024-03-02T14:50:52.246Z,14.00
2024-03-02T14:53:21.862Z,13.80
2024-03-02T14:55:50.723Z,13.60
2024-03-02T14:58:18.955Z,13.30
2024-03-02T15:00:47.350Z,13.00
2024-03-02T15:03:15.907Z,12.90
2024-03-02T15:05:44.263Z,12.70
2024-03-02T15:08:12.735Z,12.60
2024-03-02T15:10:44.999Z,12.70
2024-03-02T15:13:14.365Z,12.60
2024-03-02T15:15:43.295Z,12.60
2024-03-02T15:18:11.582Z,12.50
2024-03-02T15:20:39.851Z,12.50
2024-03-02T15:23:08.051Z,12.40
2024-03-02T15:25:36.298Z,12.40
2024-03-02T15:28:07.003Z,12.40
2024-03-02T15:30:35.305Z,12.30
2024-03-02T15:33:03.576Z,12.10
2024-03-02T15:35:31.823Z,12.00
2024-03-02T15:38:00.299Z,12.00
2024-03-02T15:40:29.328Z,12.00
2024-03-02T15:42:57.551Z,12.00
2024-03-02T15:45:34.394Z,12.00
2024-03-02T15:48:03.302Z,12.10
2024-03-02T15:50:33.647Z,12.40
2024-03-02T15:53:05.388Z,12.50
2024-03-02T15:55:33.643Z,12.80
2024-03-02T15:58:02.181Z,13.40
2024-03-02T16:00:31.919Z,13.60
2024-03-02T16:03:00.163Z,14.00
2024-03-02T16:05:28.403Z,14.20
2024-03-02T16:07:56.598Z,13.80
2024-03-02T16:10:25.688Z,12.90
2024-03-02T16:12:54.629Z,11.90
2024-03-02T16:15:23.164Z,11.40
2024-03-02T16:17:52.735Z,11.10
2024-03-02T16:20:21.147Z,10.90
2024-03-02T16:22:49.386Z,10.70
2024-03-02T16:25:17.852Z,10.60
2024-03-02T16:27:46.116Z,10.40
2024-03-02T16:30:15.300Z,10.30
2024-03-02T16:32:43.641Z,10.20
2024-03-02T16:35:13.337Z,10.10
2024-03-02T16:37:41.627Z,9.90
2024-03-02T16:40:11.536Z,9.80
2024-03-02T16:42:39.841Z,9.60
2024-03-02T16:45:08.848Z,9.60
2024-03-02T16:47:37.121Z,9.40
2024-03-02T16:50:09.210Z,9.30
2024-03-02T16:52:38.831Z,9.20
2024-03-02T16:55:08.539Z,9.10
2024-03-02T16:57:37.119Z,8.90
2024-03-02T17:00:08.241Z,8.80
2024-03-02T17:02:36.701Z,8.70
2024-03-02T17:05:05.374Z,8.60
2024-03-02T17:07:33.755Z,8.60
2024-03-02T17:10:05.444Z,8.50
2024-03-02T17:12:33.763Z,8.50
2024-03-02T17:15:02.030Z,8.50
2024-03-02T17:17:30.284Z,8.40
2024-03-02T17:19:58.938Z,8.40
2024-03-02T17:22:27.317Z,8.20
2024-03-02T17:24:56.985Z,8.10
2024-03-02T17:27:27.705Z,8.00
2024-03-02T17:29:56.037Z,7.80
2024-03-02T17:32:24.321Z,7.70
2024-03-02T17:34:52.627Z,7.60
2024-03-02T17:37:20.903Z,7.50
2024-03-02T17:39:49.457Z,7.40
2024-03-02T17:42:18.021Z,7.30
2024-03-02T17:44:47.624Z,7.30
2024-03-02T17:47:15.861Z,7.20
2024-03-02T17:49:44.054Z,7.30
2024-03-02T17:52:12.740Z,7.20
2024-03-02T17:54:41.528Z,7.20
2024-03-02T17:57:09.935Z,7.20
2024-03-02T17:59:38.750Z,7.20
2024-03-02T18:02:09.038Z,7.30
2024-03-02T18:04:37.557Z,7.30
2024-03-02T18:20:53.141Z,7.50
2024-03-02T18:23:21.450Z,7.50
2024-03-02T18:25:49.719Z,7.50
2024-03-02T18:28:18.162Z,7.50
2024-03-02T18:30:46.659Z,7.50
2024-03-02T18:33:16.014Z,7.50
2024-03-02T18:35:44.588Z,7.40
2024-03-02T18:38:14.171Z,7.40
2024-03-02T18:40:47.990Z,7.40
2024-03-02T18:43:16.281Z,7.40
2024-03-02T18:45:44.688Z,7.40
2024-03-02T18:48:13.055Z,7.30
2024-03-02T18:50:41.360Z,7.30
2024-03-02T18:53:11.620Z,7.30
2024-03-02T18:55:43.822Z,7.30
2024-03-02T18:58:12.136Z,7.30
2024-03-02T19:00:40.737Z,7.30
2024-03-02T19:03:11.157Z,7.30
2024-03-02T19:05:40.007Z,7.30
2024-03-02T19:08:09.069Z,7.30
2024-03-02T19:10:37.372Z,7.30
2024-03-02T19:13:07.618Z,7.30
2024-03-02T19:15:36.385Z,7.30
2024-03-02T19:18:05.116Z,7.30
2024-03-02T19:20:33.587Z,7.30
2024-03-02T19:23:01.910Z,7.30
2024-03-02T19:25:30.210Z,7.30
2024-03-02T19:27:58.620Z,7.30
2024-03-02T19:30:28.497Z,7.30
2024-03-02T19:32:56.721Z,7.30
2024-03-02T19:35:26.232Z,7.30
2024-03-02T19:37:56.385Z,7.30
2024-03-02T19:40:24.628Z,7.30
2024-03-02T19:42:52.925Z,7.30
2024-03-02T19:45:21.164Z,7.30
2024-03-02T19:47:50.776Z,7.30
2024-03-02T19:50:19.037Z,7.30
2024-03-02T19:52:47.416Z,7.30
2024-03-02T19:55:16.549Z,7.30
2024-03-02T19:57:46.433Z,7.30
2024-03-02T20:00:16.309Z,7.30
2024-03-02T20:28:11.575Z,7.10
2024-03-02T20:30:41.992Z,7.10
2024-03-02T20:33:10.350Z,7.10
2024-03-02T20:35:39.295Z,7.10
2024-03-02T20:38:07.689Z,7.10
2024-03-02T20:40:35.941Z,7.10
2024-03-02T20:43:04.791Z,7.20
2024-03-02T20:45:33.100Z,7.10
2024-03-02T20:48:02.691Z,7.20
2024-03-02T20:50:30.942Z,7.10
2024-03-02T20:53:01.685Z,7.10
2024-03-02T20:55:30.018Z,7.10
2024-03-02T20:57:58.358Z,7.10
2024-03-02T21:00:26.696Z,7.00
2024-03-02T21:02:54.942Z,7.00
2024-03-02T21:05:25.025Z,7.00
2024-03-02T21:07:53.323Z,7.00
2024-03-02T21:10:21.659Z,6.90
2024-03-02T21:12:50.082Z,6.90
2024-03-02T21:15:18.568Z,7.00
2024-03-02T21:17:46.893Z,7.00
2024-03-02T21:20:15.230Z,6.90
2024-03-02T21:22:48.315Z,6.90
2024-03-02T21:25:21.114Z,6.80
2024-03-02T21:27:49.429Z,6.80
2024-03-02T21:30:19.534Z,6.70
2024-03-02T21:32:49.633Z,6.70
2024-03-02T21:35:17.904Z,6.70
2024-03-02T21:37:47.482Z,6.70
2024-03-02T21:40:17.560Z,6.70
2024-03-02T21:42:45.900Z,6.60
2024-03-02T21:45:14.306Z,6.60
2024-03-02T21:47:42.563Z,6.60
2024-03-02T21:50:12.782Z,6.60
2024-03-02T21:52:41.047Z,6.60
2024-03-02T21:55:11.876Z,6.50
2024-03-02T21:57:40.676Z,6.50
2024-03-02T22:00:10.674Z,6.40
2024-03-02T22:02:38.841Z,6.30
2024-03-02T22:05:08.220Z,6.30
2024-03-02T22:07:36.573Z,6.20
2024-03-02T22:10:06.668Z,5.10
2024-03-02T22:12:36.321Z,6.00
2024-03-02T22:15:05.094Z,5.90
2024-03-02T22:17:33.489Z,5.80
2024-03-02T22:20:02.633Z,5.80
2024-03-02T22:22:30.867Z,5.60
2024-03-02T22:24:59.267Z,5.50
2024-03-02T22:27:27.485Z,5.40
2024-03-02T22:29:57.052Z,5.40
2024-03-02T22:32:25.260Z,5.50
2024-03-02T22:34:53.503Z,5.40
2024-03-02T22:37:21.888Z,5.60
2024-03-02T22:39:50.122Z,5.70
2024-03-02T22:42:18.353Z,5.70
2024-03-02T22:44:46.572Z,6.00
2024-03-02T22:47:16.147Z,5.90
2024-03-02T22:49:44.357Z,5.90
2024-03-02T22:52:12.662Z,6.00
2024-03-02T22:54:40.953Z,6.00
2024-03-02T22:57:14.437Z,6.00
2024-03-02T22:59:42.635Z,5.90
2024-03-02T23:02:10.942Z,5.90
2024-03-02T23:04:40.615Z,5.80
2024-03-02T23:07:08.841Z,5.80
2024-03-02T23:09:37.142Z,5.80
2024-03-02T23:12:06.365Z,5.70
2024-03-02T23:14:34.588Z,5.70
2024-03-02T23:17:02.839Z,5.70
2024-03-02T23:19:31.095Z,5.80
2024-03-02T23:22:00.768Z,5.90
2024-03-02T23:24:29.045Z,5.70
2024-03-02T23:26:57.265Z,5.70
2024-03-02T23:29:25.482Z,5.80
2024-03-02T23:31:53.723Z,5.80
2024-03-02T23:34:22.023Z,5.80
2024-03-02T23:36:50.405Z,5.80
2024-03-02T23:39:46.660Z,5.90
2024-03-02T23:42:14.010Z,5.90
2024-03-02T23:44:42.209Z,5.80
2024-03-02T23:47:10.936Z,5.70
2024-03-02T23:49:39.148Z,5.70
2024-03-02T23:52:07.845Z,5.70
2024-03-02T23:54:37.695Z,5.60
2024-03-02T23:57:06.187Z,5.50
2024-03-02T23:59:34.541Z,5.40
